Time;durP1;ratioP1;P1;durP2;ratioP2;P2;SDS_P1;SDS_P2;PMS_P1;PMS_P2;Temp;Humidity;BMP_temperature;BMP_pressure;BME280_temperature;BME280_humidity;BME280_pressure;Samples;Min_cycle;Max_cycle;Signal;HPM_P1;HPM_P2
2023/10/03 00:02:18;;;;;;;24.25;13.82;;;15.80;99.90;;;;;;5034447;28;20096;-81
2023/10/03 00:04:44;;;;;;;21.95;12.77;;;15.80;99.90;;;;;;5032567;28;20592;-82
2023/10/03 00:07:09;;;;;;;22.20;13.25;;;15.80;99.90;;;;;;5031098;28;21456;-82
2023/10/03 00:09:35;;;;;;;23.60;13.70;;;15.80;99.90;;;;;;5034363;28;20127;-81
2023/10/03 00:12:01;;;;;;;22.42;13.38;;;15.90;99.90;;;;;;5034241;28;20039;-81
2023/10/03 00:14:27;;;;;;;23.77;13.63;;;15.90;99.90;;;;;;5034373;28;20048;-81
2023/10/03 00:16:52;;;;;;;21.50;13.50;;;15.90;99.90;;;;;;5033713;28;20024;-82
2023/10/03 00:19:18;;;;;;;16.88;11.90;;;15.90;99.90;;;;;;5052537;28;20214;-82
2023/10/03 00:21:43;;;;;;;21.88;13.50;;;15.90;99.90;;;;;;5034392;28;20060;-81
2023/10/03 00:24:09;;;;;;;20.08;13.38;;;15.90;99.90;;;;;;5031753;28;20398;-82
2023/10/03 00:26:34;;;;;;;19.30;12.43;;;15.90;99.90;;;;;;5051906;28;20763;-81
2023/10/03 00:29:00;;;;;;;20.25;12.98;;;15.90;99.90;;;;;;5025496;28;20036;-81
2023/10/03 00:31:25;;;;;;;17.15;10.63;;;15.90;99.90;;;;;;5049781;28;20021;-82
2023/10/03 00:33:51;;;;;;;21.50;12.60;;;15.80;99.90;;;;;;5027884;28;20035;-82
2023/10/03 00:36:22;;;;;;;21.88;11.10;;;15.80;99.90;;;;;;5032902;28;20029;-82
2023/10/03 00:38:47;;;;;;;18.08;12.23;;;15.80;99.90;;;;;;5031709;28;20106;-82
2023/10/03 00:41:13;;;;;;;17.27;11.40;;;15.80;99.90;;;;;;5031219;28;20025;-81
2023/10/03 00:43:51;;;;;;;17.23;10.50;;;15.80;99.90;;;;;;5031947;28;20029;-82
2023/10/03 00:46:18;;;;;;;18.98;11.00;;;15.80;99.90;;;;;;5032439;28;20021;-83
2023/10/03 00:48:44;;;;;;;15.77;10.50;;;15.70;99.90;;;;;;5050153;28;20060;-82
2023/10/03 00:51:14;;;;;;;18.05;10.75;;;15.70;99.90;;;;;;5051397;28;20476;-83
2023/10/03 00:53:40;;;;;;;16.27;11.20;;;15.70;99.90;;;;;;5048133;28;20537;-83
2023/10/03 00:56:11;;;;;;;21.85;11.23;;;15.70;99.90;;;;;;5051084;28;20060;-83
2023/10/03 00:58:37;;;;;;;18.00;10.63;;;15.70;99.90;;;;;;5050584;28;20017;-81
2023/10/03 01:01:03;;;;;;;15.55;10.02;;;15.70;99.90;;;;;;5046843;28;20080;-82
2023/10/03 01:03:33;;;;;;;18.45;10.98;;;15.70;99.90;;;;;;5050724;28;20017;-82
2023/10/03 01:06:10;;;;;;;18.73;10.73;;;15.70;99.90;;;;;;5032805;28;20043;-84
2023/10/03 01:08:47;;;;;;;19.88;11.80;;;15.70;99.90;;;;;;5033696;28;20064;-82
2023/10/03 01:11:18;;;;;;;21.13;11.80;;;15.70;99.90;;;;;;5032281;28;20021;-82
2023/10/03 01:14:00;;;;;;;16.00;11.02;;;15.70;99.90;;;;;;5048843;28;20028;-82
2023/10/03 01:16:33;;;;;;;17.20;10.68;;;15.70;99.90;;;;;;5050826;28;20021;-82
2023/10/03 01:21:44;;;;;;;17.83;11.50;;;15.70;99.90;;;;;;5050764;28;20035;-81
2023/10/03 01:24:13;;;;;;;16.55;11.32;;;15.70;99.90;;;;;;5047485;28;20026;-83
2023/10/03 01:26:39;;;;;;;18.95;11.95;;;15.70;99.90;;;;;;5031113;28;20017;-82
2023/10/03 01:29:05;;;;;;;20.10;10.88;;;15.70;99.90;;;;;;5037721;28;20028;-82
2023/10/03 01:31:31;;;;;;;22.13;10.48;;;15.70;99.90;;;;;;5030832;28;20032;-82
2023/10/03 01:33:56;;;;;;;19.55;10.52;;;15.70;99.90;;;;;;5030788;28;20025;-82
2023/10/03 01:36:22;;;;;;;18.80;11.23;;;15.70;99.90;;;;;;5033332;28;20519;-83
2023/10/03 01:38:47;;;;;;;14.57;9.85;;;15.70;99.90;;;;;;5050165;28;20048;-83
2023/10/03 01:41:13;;;;;;;15.52;10.15;;;15.70;99.90;;;;;;5030622;28;20025;-83
2023/10/03 01:43:43;;;;;;;20.30;11.48;;;15.70;99.90;;;;;;5049764;28;20028;-82
2023/10/03 01:46:17;;;;;;;19.05;10.82;;;15.70;99.90;;;;;;5032175;28;20079;-84
2023/10/03 01:48:43;;;;;;;19.02;10.30;;;15.70;99.90;;;;;;5042068;28;20024;-82
2023/10/03 01:51:09;;;;;;;18.70;11.65;;;15.80;99.90;;;;;;5037453;28;20029;-82
2023/10/03 01:53:35;;;;;;;19.02;11.02;;;15.80;99.90;;;;;;5033538;28;20025;-82
2023/10/03 01:56:03;;;;;;;17.02;11.02;;;15.80;99.90;;;;;;5030858;28;20031;-82
2023/10/03 01:58:29;;;;;;;19.00;11.02;;;15.80;99.90;;;;;;5050018;28;20493;-82
2023/10/03 02:00:54;;;;;;;16.05;10.88;;;15.80;99.90;;;;;;5029904;28;20025;-83
2023/10/03 02:03:22;;;;;;;17.83;10.63;;;15.80;99.90;;;;;;5032900;28;20114;-82
2023/10/03 02:05:48;;;;;;;16.13;10.15;;;15.80;99.90;;;;;;5029417;28;20458;-82
2023/10/03 02:08:16;;;;;;;13.63;9.43;;;15.80;99.90;;;;;;5050764;28;20029;-82
2023/10/03 02:10:44;;;;;;;18.30;10.10;;;15.80;99.90;;;;;;5032855;28;20454;-83
2023/10/03 02:13:17;;;;;;;17.90;9.93;;;15.80;99.90;;;;;;5050005;28;20017;-82
2023/10/03 02:15:44;;;;;;;19.27;10.20;;;15.80;99.90;;;;;;5032354;28;20029;-82
2023/10/03 02:18:10;;;;;;;14.30;10.65;;;15.80;99.90;;;;;;5037661;28;20017;-82
2023/10/03 02:20:47;;;;;;;16.65;9.48;;;15.80;99.90;;;;;;5050421;28;20028;-83
2023/10/03 02:23:17;;;;;;;17.73;10.02;;;15.80;99.90;;;;;;5051464;28;20017;-82
2023/10/03 02:25:44;;;;;;;16.60;10.18;;;15.80;99.90;;;;;;5049704;28;20014;-83
2023/10/03 02:28:10;;;;;;;15.27;9.05;;;15.80;99.90;;;;;;5031796;28;20027;-82
2023/10/03 02:30:36;;;;;;;15.20;10.05;;;15.80;99.90;;;;;;5050350;28;20116;-84
2023/10/03 02:33:15;;;;;;;12.48;8.88;;;15.80;99.90;;;;;;5034253;28;20124;-83
2023/10/03 02:35:46;;;;;;;19.55;10.13;;;15.80;99.90;;;;;;5038053;28;20940;-83
2023/10/03 02:38:24;;;;;;;13.65;9.27;;;15.80;99.90;;;;;;5031883;28;20033;-82
2023/10/03 02:40:51;;;;;;;15.05;9.50;;;15.80;99.90;;;;;;5047119;28;20013;-83
2023/10/03 02:43:16;;;;;;;14.70;9.20;;;15.80;99.90;;;;;;5031269;28;20018;-83
2023/10/03 02:45:42;;;;;;;15.15;9.25;;;15.80;99.90;;;;;;5035885;28;20031;-82
2023/10/03 02:48:14;;;;;;;17.88;9.15;;;15.80;99.90;;;;;;5036387;28;20504;-82
2023/10/03 02:50:45;;;;;;;15.45;9.40;;;15.90;99.90;;;;;;5054110;28;20048;-82
2023/10/03 02:53:17;;;;;;;16.88;9.68;;;15.90;99.90;;;;;;5035359;28;20033;-82
2023/10/03 02:55:43;;;;;;;15.68;9.27;;;15.90;99.90;;;;;;5033146;28;20028;-82
2023/10/03 02:58:09;;;;;;;17.38;10.57;;;15.90;99.90;;;;;;5033312;28;20024;-84
2023/10/03 03:00:37;;;;;;;14.10;8.75;;;15.90;99.90;;;;;;5035780;28;20017;-81
2023/10/03 03:03:06;;;;;;;16.08;10.15;;;15.90;99.90;;;;;;5035382;28;20025;-82
2023/10/03 03:05:36;;;;;;;13.90;9.55;;;15.90;99.90;;;;;;5033914;28;20607;-82
2023/10/03 03:08:10;;;;;;;17.15;9.50;;;15.90;99.90;;;;;;5051101;28;20072;-82
2023/10/03 03:10:38;;;;;;;12.15;7.85;;;15.90;99.90;;;;;;5033849;28;20083;-82
2023/10/03 03:13:07;;;;;;;12.85;8.70;;;15.90;99.90;;;;;;5030673;28;20032;-82
2023/10/03 03:15:36;;;;;;;14.20;8.27;;;15.90;99.90;;;;;;5038835;28;20083;-81
2023/10/03 03:18:02;;;;;;;13.82;8.95;;;15.90;99.90;;;;;;5033692;28;20025;-82
2023/10/03 03:20:36;;;;;;;13.73;8.88;;;15.90;99.90;;;;;;5035675;28;20020;-83
2023/10/03 03:23:02;;;;;;;12.05;8.32;;;15.90;99.90;;;;;;5033499;28;20048;-82
2023/10/03 03:25:38;;;;;;;12.43;8.23;;;15.90;99.90;;;;;;5036171;28;20017;-82
2023/10/03 03:28:13;;;;;;;14.88;8.23;;;15.90;99.90;;;;;;5055191;28;20045;-81
2023/10/03 03:30:46;;;;;;;15.48;8.52;;;15.90;99.90;;;;;;5048454;28;20074;-82
2023/10/03 03:33:19;;;;;;;14.35;8.98;;;15.90;99.90;;;;;;5052528;28;20036;-82
2023/10/03 03:35:46;;;;;;;14.95;8.65;;;15.90;99.90;;;;;;5027431;28;20052;-82
2023/10/03 03:38:18;;;;;;;15.65;8.50;;;15.90;99.90;;;;;;5033190;28;20028;-83
2023/10/03 03:40:56;;;;;;;13.70;8.68;;;15.90;99.90;;;;;;5049902;28;20024;-82
2023/10/03 03:43:22;;;;;;;14.35;8.88;;;15.90;99.90;;;;;;5050029;28;20029;-83
2023/10/03 03:45:48;;;;;;;16.00;8.88;;;15.90;99.90;;;;;;5050752;28;20021;-82
2023/10/03 03:48:14;;;;;;;12.52;8.95;;;15.90;99.90;;;;;;5034819;28;20029;-81
2023/10/03 03:50:43;;;;;;;12.65;7.55;;;15.90;99.90;;;;;;5034145;28;20075;-82
2023/10/03 03:53:10;;;;;;;12.98;8.15;;;15.90;99.90;;;;;;5032826;28;20024;-83
2023/10/03 03:55:37;;;;;;;14.27;7.95;;;15.80;99.90;;;;;;5049950;28;20033;-82
2023/10/03 03:58:17;;;;;;;12.48;7.65;;;15.80;99.90;;;;;;5033898;28;20029;-82
2023/10/03 04:00:49;;;;;;;13.07;8.02;;;15.80;99.90;;;;;;5033291;28;20029;-82
2023/10/03 04:03:15;;;;;;;11.85;7.15;;;15.80;99.90;;;;;;5033579;28;20087;-81
2023/10/03 04:05:41;;;;;;;12.93;8.45;;;15.80;99.90;;;;;;5051872;28;20583;-82
2023/10/03 04:08:07;;;;;;;10.07;7.65;;;15.80;99.90;;;;;;5050970;28;20405;-82
2023/10/03 04:10:36;;;;;;;15.63;8.05;;;15.80;99.90;;;;;;5034575;28;20153;-81
2023/10/03 04:13:05;;;;;;;15.18;8.15;;;15.80;99.90;;;;;;5031660;28;20021;-82
2023/10/03 04:15:31;;;;;;;16.33;8.45;;;15.70;99.90;;;;;;5051230;28;20070;-82
2023/10/03 04:17:56;;;;;;;11.95;7.00;;;15.70;99.90;;;;;;5031647;28;20108;-81
2023/10/03 04:20:30;;;;;;;10.57;7.57;;;15.70;99.90;;;;;;5051093;28;20024;-83
2023/10/03 04:22:58;;;;;;;13.65;6.97;;;15.70;99.90;;;;;;5034192;28;20021;-81
2023/10/03 04:25:24;;;;;;;13.93;7.78;;;15.70;99.90;;;;;;5033434;28;20139;-81
2023/10/03 04:27:52;;;;;;;11.00;7.22;;;15.70;99.90;;;;;;5051058;28;20032;-82
2023/10/03 04:30:25;;;;;;;14.32;7.15;;;15.70;99.90;;;;;;5050030;28;20082;-82
2023/10/03 04:32:52;;;;;;;11.63;7.20;;;15.60;99.90;;;;;;5030151;28;20521;-83
2023/10/03 04:35:19;;;;;;;11.98;6.93;;;15.60;99.90;;;;;;5048744;28;20051;-81
2023/10/03 04:37:46;;;;;;;12.00;7.10;;;15.60;99.90;;;;;;5033489;28;20430;-81
2023/10/03 04:40:21;;;;;;;11.20;7.40;;;15.60;99.90;;;;;;5049971;28;20036;-81
2023/10/03 04:42:47;;;;;;;14.43;7.13;;;15.60;99.90;;;;;;5032356;28;20517;-82
2023/10/03 04:45:14;;;;;;;9.90;6.93;;;15.60;99.90;;;;;;5051162;28;20031;-82
2023/10/03 04:47:45;;;;;;;13.85;7.07;;;15.60;99.90;;;;;;5032237;28;20029;-81
2023/10/03 04:50:11;;;;;;;16.05;8.50;;;15.60;99.90;;;;;;5031123;28;20060;-81
2023/10/03 04:52:41;;;;;;;10.88;6.90;;;15.60;99.90;;;;;;5049263;28;20082;-81
2023/10/03 04:55:07;;;;;;;11.40;7.35;;;15.60;99.90;;;;;;5048409;28;20496;-81
2023/10/03 04:57:33;;;;;;;12.15;7.47;;;15.60;99.90;;;;;;5030749;28;20060;-81
2023/10/03 04:59:59;;;;;;;12.05;6.47;;;15.60;99.90;;;;;;5045940;28;20048;-79
2023/10/03 05:02:26;;;;;;;12.68;6.68;;;15.60;99.90;;;;;;5048643;28;20025;-82
2023/10/03 05:04:51;;;;;;;12.23;7.15;;;15.60;99.90;;;;;;5036085;28;20032;-80
2023/10/03 05:07:17;;;;;;;10.07;6.65;;;15.60;99.90;;;;;;5029178;28;20028;-82
2023/10/03 05:09:43;;;;;;;13.90;7.05;;;15.60;99.90;;;;;;5033498;28;20025;-81
2023/10/03 05:12:10;;;;;;;13.82;7.45;;;15.60;99.90;;;;;;5030526;28;20499;-82
2023/10/03 05:14:40;;;;;;;13.13;7.25;;;15.50;99.90;;;;;;5031731;28;20032;-81
2023/10/03 05:17:06;;;;;;;15.38;7.88;;;15.50;99.90;;;;;;5032302;28;20058;-81
2023/10/03 05:19:31;;;;;;;13.63;7.05;;;15.50;99.90;;;;;;5046583;28;20048;-80
2023/10/03 05:21:58;;;;;;;12.35;7.18;;;15.60;99.90;;;;;;5033617;28;20464;-80
2023/10/03 05:24:24;;;;;;;13.05;7.53;;;15.60;99.90;;;;;;5048864;28;20558;-82
2023/10/03 05:26:49;;;;;;;13.13;7.47;;;15.60;99.90;;;;;;5050654;28;20021;-81
2023/10/03 05:29:16;;;;;;;11.85;7.57;;;15.60;99.90;;;;;;5049312;28;20084;-81
2023/10/03 05:31:42;;;;;;;11.35;6.45;;;15.60;99.90;;;;;;5032771;28;20219;-81
2023/10/03 05:34:09;;;;;;;14.10;8.00;;;15.50;99.90;;;;;;5049985;28;20017;-81
2023/10/03 05:36:34;;;;;;;12.65;6.95;;;15.50;99.90;;;;;;5050269;28;20380;-80
2023/10/03 05:39:00;;;;;;;14.63;7.82;;;15.50;99.90;;;;;;5032311;28;20021;-82
2023/10/03 05:41:26;;;;;;;12.45;7.47;;;15.50;99.90;;;;;;5048155;28;20485;-81
2023/10/03 05:43:54;;;;;;;15.27;9.07;;;15.50;99.90;;;;;;5029663;28;20424;-83
2023/10/03 05:46:20;;;;;;;15.35;8.45;;;15.50;99.90;;;;;;5049425;28;20086;-82
2023/10/03 05:48:46;;;;;;;14.02;7.50;;;15.50;99.90;;;;;;5048744;28;20720;-82
2023/10/03 05:51:12;;;;;;;14.07;7.22;;;15.50;99.90;;;;;;5029323;28;20017;-81
2023/10/03 05:53:40;;;;;;;14.90;8.45;;;15.50;99.90;;;;;;5029208;28;20100;-82
2023/10/03 05:56:06;;;;;;;12.60;7.78;;;15.50;99.90;;;;;;5045890;28;20108;-81
2023/10/03 05:58:32;;;;;;;12.02;7.78;;;15.50;99.90;;;;;;5045773;28;20068;-83
2023/10/03 06:00:58;;;;;;;13.88;8.40;;;15.50;99.90;;;;;;5030107;28;20033;-83
2023/10/03 06:03:24;;;;;;;12.57;8.00;;;15.50;99.90;;;;;;5029102;28;20140;-81
2023/10/03 06:05:50;;;;;;;16.75;8.18;;;15.60;99.90;;;;;;5048427;28;20071;-81
2023/10/03 06:08:17;;;;;;;13.63;7.65;;;15.60;99.90;;;;;;5045034;28;20059;-81
2023/10/03 06:10:42;;;;;;;14.50;8.27;;;15.60;99.90;;;;;;5047475;28;20567;-81
2023/10/03 06:13:11;;;;;;;13.75;7.13;;;15.60;99.90;;;;;;5029707;28;20032;-82
2023/10/03 06:15:43;;;;;;;12.90;8.02;;;15.60;99.90;;;;;;5029241;28;20033;-79
2023/10/03 06:18:09;;;;;;;13.25;8.65;;;15.60;99.90;;;;;;5030548;28;20021;-81
2023/10/03 06:20:35;;;;;;;14.18;7.68;;;15.70;99.90;;;;;;5047154;28;20061;-81
2023/10/03 06:23:02;;;;;;;14.60;7.35;;;15.70;99.90;;;;;;5030442;28;20032;-80
2023/10/03 06:25:29;;;;;;;17.05;8.05;;;15.70;99.90;;;;;;5046562;28;20044;-80
2023/10/03 06:27:54;;;;;;;13.98;7.90;;;15.70;99.90;;;;;;5048957;28;20103;-81
2023/10/03 06:30:20;;;;;;;11.73;7.25;;;15.70;99.90;;;;;;5047790;28;20055;-82
2023/10/03 06:32:45;;;;;;;16.10;7.95;;;15.70;99.90;;;;;;5031835;28;20125;-80
2023/10/03 06:35:11;;;;;;;13.82;7.88;;;15.80;99.90;;;;;;5029308;28;20471;-81
2023/10/03 06:37:40;;;;;;;12.05;7.13;;;15.80;99.90;;;;;;5026986;28;20025;-80
2023/10/03 06:40:09;;;;;;;12.93;7.97;;;15.80;99.90;;;;;;5029146;28;20128;-81
2023/10/03 06:42:35;;;;;;;14.50;7.30;;;15.80;99.90;;;;;;5046835;28;20028;-81
2023/10/03 06:45:04;;;;;;;12.90;7.63;;;15.80;99.90;;;;;;5029082;28;20055;-81
2023/10/03 06:47:33;;;;;;;13.00;7.40;;;15.90;99.90;;;;;;5046355;28;20029;-81
2023/10/03 06:49:59;;;;;;;15.05;7.93;;;15.90;99.90;;;;;;5027717;28;20025;-81
2023/10/03 06:52:25;;;;;;;13.45;7.97;;;16.00;99.90;;;;;;5024007;28;20064;-81
2023/10/03 06:54:51;;;;;;;14.65;8.35;;;16.00;99.90;;;;;;5053329;28;20068;-80
2023/10/03 06:57:16;;;;;;;17.27;8.93;;;16.10;99.90;;;;;;5029675;28;20064;-82
2023/10/03 06:59:42;;;;;;;14.05;7.72;;;16.10;99.90;;;;;;5031394;28;20017;-79
2023/10/03 07:02:08;;;;;;;14.40;8.52;;;16.20;99.90;;;;;;5030954;28;20025;-84
2023/10/03 07:04:34;;;;;;;15.55;7.75;;;16.30;99.90;;;;;;5049124;28;20042;-81
2023/10/03 07:06:59;;;;;;;15.00;7.30;;;16.40;99.90;;;;;;5050306;28;20033;-82
2023/10/03 07:09:25;;;;;;;16.38;8.68;;;16.50;99.90;;;;;;5031004;28;20025;-82
2023/10/03 07:11:50;;;;;;;15.02;7.72;;;16.60;99.90;;;;;;5049669;28;20036;-83
2023/10/03 07:14:16;;;;;;;15.93;8.00;;;16.80;99.90;;;;;;5030474;28;20405;-82
2023/10/03 07:16:43;;;;;;;13.50;7.75;;;16.90;99.90;;;;;;5032225;28;20640;-83
2023/10/03 07:19:10;;;;;;;14.70;7.70;;;17.00;99.90;;;;;;5045957;28;20456;-82
2023/10/03 07:21:36;;;;;;;17.05;8.85;;;17.20;99.90;;;;;;5029341;28;20408;-83
2023/10/03 07:24:03;;;;;;;15.45;7.78;;;17.20;99.90;;;;;;5028765;28;20039;-80
2023/10/03 07:26:29;;;;;;;14.13;8.30;;;17.30;99.90;;;;;;5047107;28;20036;-80
2023/10/03 07:29:00;;;;;;;18.27;9.15;;;17.40;99.90;;;;;;5049434;28;20488;-80
2023/10/03 07:31:26;;;;;;;14.57;8.32;;;17.50;99.90;;;;;;5033476;28;20025;-81
2023/10/03 07:33:52;;;;;;;16.48;8.95;;;17.50;99.90;;;;;;5033854;28;20083;-80
2023/10/03 07:36:18;;;;;;;19.35;8.70;;;17.60;99.90;;;;;;5032546;28;20024;-81
2023/10/03 07:38:45;;;;;;;18.00;8.65;;;17.70;99.90;;;;;;5048200;28;20051;-82
2023/10/03 07:41:15;;;;;;;17.80;8.38;;;17.70;99.90;;;;;;5033049;28;20068;-81
2023/10/03 07:43:41;;;;;;;16.33;8.68;;;17.80;99.90;;;;;;5051136;28;20084;-81
2023/10/03 07:46:07;;;;;;;16.52;9.35;;;17.90;99.90;;;;;;5052169;28;20075;-81
2023/10/03 07:48:32;;;;;;;16.90;8.15;;;17.90;99.90;;;;;;5034159;28;20684;-83
2023/10/03 07:50:58;;;;;;;16.90;8.90;;;18.00;99.90;;;;;;5034109;28;20110;-80
2023/10/03 07:53:23;;;;;;;18.05;8.95;;;18.10;99.90;;;;;;5049481;28;20035;-81
2023/10/03 07:55:49;;;;;;;14.40;8.55;;;18.20;99.90;;;;;;5034190;28;20024;-83
2023/10/03 07:58:15;;;;;;;18.05;9.43;;;18.20;99.90;;;;;;5033251;28;20136;-81
2023/10/03 08:00:44;;;;;;;15.30;8.50;;;18.30;99.90;;;;;;5050427;28;20587;-81
2023/10/03 08:03:11;;;;;;;15.73;8.63;;;18.30;99.90;;;;;;5050983;28;20120;-80
2023/10/03 08:05:37;;;;;;;18.50;8.65;;;18.40;99.90;;;;;;5032300;28;21487;-80
2023/10/03 08:08:04;;;;;;;15.52;8.73;;;18.50;99.90;;;;;;5050216;28;20056;-83
2023/10/03 08:10:32;;;;;;;20.55;8.35;;;18.60;99.90;;;;;;5032102;28;20083;-80
2023/10/03 08:12:59;;;;;;;16.27;8.82;;;18.70;99.90;;;;;;5051183;28;20473;-81
2023/10/03 08:15:31;;;;;;;16.60;9.27;;;18.80;99.90;;;;;;5049052;28;20025;-81
2023/10/03 08:17:57;;;;;;;17.58;8.13;;;18.90;99.90;;;;;;5032808;28;20028;-81
2023/10/03 08:20:24;;;;;;;14.57;8.18;;;19.00;99.90;;;;;;5049928;28;20091;-82
2023/10/03 08:22:53;;;;;;;14.05;7.85;;;19.10;99.90;;;;;;5032658;28;20066;-80
2023/10/03 08:25:23;;;;;;;15.60;8.57;;;19.20;99.90;;;;;;5030025;28;20102;-81
2023/10/03 08:27:49;;;;;;;15.88;9.40;;;19.30;99.90;;;;;;5049930;28;20013;-81
2023/10/03 08:30:28;;;;;;;14.70;8.27;;;19.40;99.90;;;;;;5031210;28;20428;-81
2023/10/03 08:32:56;;;;;;;15.82;8.05;;;19.50;99.90;;;;;;5049561;28;20099;-81
2023/10/03 08:35:34;;;;;;;15.23;9.23;;;19.50;99.90;;;;;;5049128;28;20108;-84
2023/10/03 08:38:04;;;;;;;14.73;7.78;;;19.60;99.90;;;;;;5047067;28;20242;-81
2023/10/03 08:40:37;;;;;;;16.60;8.40;;;19.60;99.90;;;;;;5047752;28;20028;-81
2023/10/03 08:43:08;;;;;;;15.50;8.68;;;19.70;99.90;;;;;;5057959;28;20040;-82
2023/10/03 08:45:39;;;;;;;13.57;8.10;;;19.80;99.90;;;;;;5050893;28;20020;-81
2023/10/03 08:48:08;;;;;;;21.85;8.52;;;19.90;99.90;;;;;;5026853;28;20037;-81
2023/10/03 08:50:46;;;;;;;15.77;8.00;;;19.90;99.90;;;;;;5049370;28;20029;-82
2023/10/03 08:53:26;;;;;;;16.25;8.10;;;19.90;99.90;;;;;;5050239;28;20025;-82
2023/10/03 08:55:57;;;;;;;16.02;8.27;;;19.90;99.90;;;;;;5035736;28;20052;-82
2023/10/03 08:58:25;;;;;;;13.98;7.82;;;19.90;99.90;;;;;;5030264;28;20092;-81
2023/10/03 09:00:58;;;;;;;15.13;7.80;;;19.80;99.90;;;;;;5049413;28;20017;-81
2023/10/03 09:03:25;;;;;;;16.05;7.85;;;19.80;99.90;;;;;;5033339;28;20028;-81
2023/10/03 09:05:51;;;;;;;13.70;7.05;;;19.90;99.90;;;;;;5031979;28;20408;-82
2023/10/03 09:08:17;;;;;;;12.38;7.45;;;19.90;99.90;;;;;;5051180;28;20032;-85
2023/10/03 09:10:55;;;;;;;16.45;7.22;;;20.00;99.90;;;;;;5051176;28;20542;-83
2023/10/03 09:13:25;;;;;;;14.70;7.43;;;20.10;99.90;;;;;;5047826;28;20125;-82
2023/10/03 09:15:59;;;;;;;10.70;7.03;;;20.20;99.90;;;;;;5050481;28;20567;-83
2023/10/03 09:18:29;;;;;;;16.63;7.35;;;20.20;99.90;;;;;;5030775;28;20029;-82
2023/10/03 09:21:05;;;;;;;14.95;7.05;;;20.20;99.90;;;;;;5046174;28;20105;-80
2023/10/03 09:23:39;;;;;;;;;;;20.10;99.90;;;;;;5028075;28;20040;-80
2023/10/03 09:26:06;;;;;;;11.35;5.88;;;20.10;99.90;;;;;;5030812;28;19951;-81
2023/10/03 09:28:35;;;;;;;9.25;6.35;;;20.00;99.90;;;;;;5028449;28;20048;-80
2023/10/03 09:31:08;;;;;;;11.40;6.57;;;20.00;99.90;;;;;;5027489;28;20365;-81
2023/10/03 09:33:38;;;;;;;12.23;7.03;;;20.10;99.90;;;;;;5030571;28;20088;-82
2023/10/03 09:36:04;;;;;;;12.68;6.10;;;20.20;99.90;;;;;;5048589;28;20025;-81
2023/10/03 09:38:56;;;;;;;9.35;5.03;;;20.30;99.90;;;;;;5050125;28;20878;-82
2023/10/03 09:41:24;;;;;;;9.23;5.45;;;20.40;99.90;;;;;;5043656;28;20048;-80
2023/10/03 09:43:53;;;;;;;11.30;5.47;;;20.40;99.90;;;;;;5030577;28;20075;-81
2023/10/03 09:46:23;;;;;;;10.90;5.43;;;20.40;99.90;;;;;;5027482;28;20622;-81
2023/10/03 09:48:56;;;;;;;10.25;5.22;;;20.40;99.90;;;;;;5027693;28;20017;-82
2023/10/03 09:54:15;;;;;;;8.43;5.07;;;20.40;99.90;;;;;;5047905;28;21340;-84
2023/10/03 09:56:44;;;;;;;10.38;5.25;;;20.40;99.90;;;;;;5048767;28;20028;-81
2023/10/03 09:59:17;;;;;;;8.70;4.68;;;20.30;99.90;;;;;;5030835;28;20025;-81
2023/10/03 10:01:45;;;;;;;8.20;4.50;;;20.20;99.90;;;;;;5027194;28;20477;-80
2023/10/03 10:04:13;;;;;;;8.35;5.43;;;20.20;99.90;;;;;;5028080;28;20468;-81
2023/10/03 10:06:49;;;;;;;11.48;5.10;;;20.10;99.90;;;;;;5022528;28;20111;-80
2023/10/03 10:09:28;;;;;;;8.98;5.05;;;20.00;99.90;;;;;;5048167;28;20025;-80
2023/10/03 10:12:14;;;;;;;14.18;6.13;;;19.90;99.90;;;;;;5046520;28;20104;-80
2023/10/03 10:15:02;;;;;;;11.48;6.18;;;19.80;99.90;;;;;;5050318;28;20033;-82
2023/10/03 10:17:51;;;;;;;8.70;5.53;;;19.70;99.90;;;;;;5031732;28;20024;-81
2023/10/03 10:20:27;;;;;;;14.30;5.95;;;19.70;99.90;;;;;;5029181;28;20036;-81
2023/10/03 10:22:59;;;;;;;11.13;5.10;;;19.70;99.90;;;;;;5049012;28;20041;-81
2023/10/03 10:25:30;;;;;;;13.60;6.20;;;19.70;99.90;;;;;;5047694;28;20025;-80
2023/10/03 10:28:06;;;;;;;11.43;5.88;;;19.60;99.90;;;;;;5044775;28;20552;-81
2023/10/03 10:30:36;;;;;;;9.38;4.78;;;19.50;99.90;;;;;;5045126;28;20024;-81
2023/10/03 10:33:17;;;;;;;9.27;5.75;;;19.40;99.90;;;;;;5048522;28;20044;-80
2023/10/03 10:35:59;;;;;;;8.73;5.45;;;19.40;99.90;;;;;;5029466;28;20017;-81
2023/10/03 10:38:31;;;;;;;11.30;5.18;;;19.30;99.90;;;;;;5046758;28;20039;-82
2023/10/03 10:41:17;;;;;;;10.80;4.70;;;19.30;99.90;;;;;;5031468;28;20036;-81
2023/10/03 10:44:14;;;;;;;9.00;4.70;;;19.20;99.90;;;;;;5031834;28;20025;-82
2023/10/03 10:46:45;;;;;;;9.93;5.47;;;19.00;99.90;;;;;;5034757;28;20025;-83
2023/10/03 10:49:33;;;;;;;10.25;5.15;;;18.90;99.90;;;;;;5031031;28;20116;-87
2023/10/03 10:52:06;;;;;;;15.23;6.07;;;18.70;99.90;;;;;;5048686;28;20488;-86
2023/10/03 10:54:42;;;;;;;9.75;4.90;;;18.40;99.90;;;;;;5030311;28;20016;-85
2023/10/03 10:57:11;;;;;;;;;;;18.30;99.90;;;;;;5051415;28;20511;-84
2023/10/03 10:59:41;;;;;;;8.20;4.63;;;18.30;99.90;;;;;;5028631;28;20012;-85
2023/10/03 11:02:20;;;;;;;7.65;5.05;;;18.10;99.90;;;;;;5027388;28;20024;-86
2023/10/03 11:05:12;;;;;;;8.70;4.68;;;18.10;99.90;;;;;;5034529;28;20033;-86
2023/10/03 11:07:49;;;;;;;6.40;4.40;;;18.10;99.90;;;;;;5030483;28;20037;-85
2023/10/03 11:10:17;;;;;;;6.47;3.25;;;18.10;99.90;;;;;;5035928;28;20032;-85
2023/10/03 11:12:42;;;;;;;4.93;2.88;;;18.00;99.90;;;;;;5035733;28;20021;-86
2023/10/03 11:15:12;;;;;;;7.13;3.42;;;17.90;99.90;;;;;;5053081;28;20036;-86
2023/10/03 11:17:38;;;;;;;5.25;3.15;;;17.80;99.90;;;;;;5034083;28;20389;-86
2023/10/03 11:20:08;;;;;;;4.10;3.25;;;17.80;99.90;;;;;;5036505;28;20021;-85
2023/10/03 11:22:37;;;;;;;7.78;3.40;;;17.70;99.90;;;;;;5032821;28;20131;-85
2023/10/03 11:25:09;;;;;;;5.07;2.58;;;17.70;99.90;;;;;;5031244;28;20040;-85
2023/10/03 11:27:34;;;;;;;6.25;2.92;;;17.70;99.90;;;;;;5033552;28;20108;-87
2023/10/03 11:30:14;;;;;;;5.75;3.33;;;17.70;99.90;;;;;;5032217;28;20041;-85
2023/10/03 11:32:40;;;;;;;6.38;2.53;;;17.70;99.90;;;;;;5034394;28;20017;-87
2023/10/03 11:35:20;;;;;;;6.68;2.95;;;17.70;99.90;;;;;;5052554;28;20021;-85
2023/10/03 11:37:46;;;;;;;3.95;1.45;;;17.60;99.90;;;;;;5034323;28;20100;-85
2023/10/03 11:40:23;;;;;;;2.00;1.13;;;17.40;99.90;;;;;;5028410;28;20431;-83
2023/10/03 11:42:53;;;;;;;6.97;1.40;;;17.30;99.90;;;;;;5035964;28;20029;-85
2023/10/03 11:45:22;;;;;;;6.78;1.63;;;17.20;99.90;;;;;;5029934;28;20025;-84
2023/10/03 11:48:05;;;;;;;3.63;1.02;;;17.20;99.90;;;;;;5031860;28;20043;-84
2023/10/03 11:50:34;;;;;;;5.03;1.30;;;17.20;99.90;;;;;;5033232;28;20116;-86
2023/10/03 11:53:00;;;;;;;6.65;1.20;;;17.20;99.90;;;;;;5032644;28;20329;-82
2023/10/03 11:55:27;;;;;;;5.03;1.50;;;17.10;99.90;;;;;;5026390;28;20125;-84
2023/10/03 11:57:53;;;;;;;4.25;1.13;;;17.10;99.90;;;;;;5030875;28;20044;-86
2023/10/03 12:00:24;;;;;;;7.40;1.38;;;17.00;99.90;;;;;;5028748;28;20063;-84
2023/10/03 12:02:51;;;;;;;3.17;0.73;;;17.00;99.90;;;;;;5044717;28;20029;-84
2023/10/03 12:05:16;;;;;;;5.15;0.88;;;16.80;99.90;;;;;;5026154;28;20047;-84
2023/10/03 12:07:49;;;;;;;3.20;0.90;;;16.80;99.90;;;;;;5028011;28;20037;-83
2023/10/03 12:10:16;;;;;;;5.53;0.70;;;16.70;99.90;;;;;;5031673;28;20036;-86
2023/10/03 12:12:42;;;;;;;2.75;0.70;;;16.70;99.90;;;;;;5031789;28;20127;-83
2023/10/03 12:15:12;;;;;;;2.67;0.60;;;16.60;99.90;;;;;;5031372;28;20508;-84
2023/10/03 12:17:42;;;;;;;2.40;0.70;;;16.60;99.90;;;;;;5031030;28;20469;-82
2023/10/03 12:20:13;;;;;;;3.50;0.85;;;16.50;99.90;;;;;;5026623;28;20366;-82
2023/10/03 12:22:43;;;;;;;1.75;0.52;;;16.50;99.90;;;;;;5031081;28;20086;-84
2023/10/03 12:25:14;;;;;;;1.88;0.70;;;16.50;99.90;;;;;;5030466;28;20036;-87
2023/10/03 12:27:41;;;;;;;0.98;0.45;;;16.50;99.90;;;;;;5031961;28;20382;-87
2023/10/03 12:30:10;;;;;;;1.02;0.52;;;16.40;99.90;;;;;;5033426;28;20104;-85
2023/10/03 12:32:45;;;;;;;2.20;1.50;;;16.30;99.90;;;;;;5028788;28;20033;-86
2023/10/03 12:35:11;;;;;;;3.35;0.70;;;16.30;99.90;;;;;;5031605;28;20028;-86
2023/10/03 12:37:38;;;;;;;3.83;0.88;;;16.40;99.90;;;;;;5031600;28;20312;-84
2023/10/03 12:40:15;;;;;;;3.20;0.75;;;16.30;99.90;;;;;;5032303;28;20552;-84
2023/10/03 12:42:48;;;;;;;1.13;0.35;;;16.20;99.90;;;;;;5032153;28;20039;-83
2023/10/03 12:45:16;;;;;;;2.17;0.80;;;16.20;99.90;;;;;;5048530;28;20093;-84
2023/10/03 12:47:49;;;;;;;1.85;0.47;;;16.20;99.90;;;;;;5028510;28;20022;-82
2023/10/03 12:50:17;;;;;;;2.55;0.45;;;16.30;99.90;;;;;;5043576;28;20367;-84
2023/10/03 12:52:42;;;;;;;4.63;0.77;;;16.30;99.90;;;;;;5045558;28;20525;-83
2023/10/03 12:55:09;;;;;;;4.57;0.85;;;16.20;99.90;;;;;;5027505;28;20284;-84